Time;durP1;ratioP1;P1;durP2;ratioP2;P2;SDS_P1;SDS_P2;PMS_P1;PMS_P2;Temp;Humidity;BMP_temperature;BMP_pressure;BME280_temperature;BME280_humidity;BME280_pressure;Samples;Min_cycle;Max_cycle;Signal;HPM_P1;HPM_P2
2023/03/10 00:00:32;;;;;;;14.52;6.57;;;;;;;1.49;100.00;98326.41;5097439;29;20046;-74
2023/03/10 00:03:03;;;;;;;15.95;6.35;;;;;;;1.47;100.00;98326.47;5097609;29;20024;-74
2023/03/10 00:05:33;;;;;;;15.02;6.40;;;;;;;1.61;100.00;98318.25;5098292;29;20050;-75
2023/03/10 00:08:05;;;;;;;16.33;6.63;;;;;;;1.61;100.00;98307.97;5103029;29;20431;-73
2023/03/10 00:10:35;;;;;;;16.52;6.32;;;;;;;1.52;100.00;98298.84;5101943;29;20437;-73
2023/03/10 00:13:06;;;;;;;16.88;7.38;;;;;;;1.57;100.00;98291.78;5101391;29;20023;-74
2023/03/10 00:15:36;;;;;;;14.98;6.60;;;;;;;1.64;100.00;98289.81;5098374;29;20036;-74
2023/03/10 00:18:06;;;;;;;13.55;6.40;;;;;;;1.91;100.00;98282.75;5105491;29;20031;-73
2023/03/10 00:20:36;;;;;;;14.75;6.65;;;;;;;1.84;100.00;98273.56;5100932;29;20050;-74
2023/03/10 00:23:07;;;;;;;13.38;6.45;;;;;;;1.90;100.00;98269.94;5107065;29;20095;-74
2023/03/10 00:25:38;;;;;;;14.50;6.25;;;;;;;2.09;100.00;98271.75;5108179;29;20042;-73
2023/03/10 00:28:08;;;;;;;14.20;6.05;;;;;;;1.89;100.00;98263.97;5106928;29;20115;-74
2023/03/10 00:30:38;;;;;;;15.50;5.80;;;;;;;1.97;100.00;98274.81;5108270;29;20109;-74
2023/03/10 00:33:09;;;;;;;12.60;5.63;;;;;;;2.14;100.00;98264.69;5107336;29;20027;-73
2023/03/10 00:35:39;;;;;;;12.02;5.28;;;;;;;2.01;100.00;98260.91;5108369;29;20504;-73
2023/03/10 00:38:09;;;;;;;15.38;6.50;;;;;;;2.01;100.00;98242.06;5111563;29;20042;-75
2023/03/10 00:40:39;;;;;;;13.88;5.68;;;;;;;1.97;100.00;98243.91;5115962;29;20038;-74
2023/03/10 00:43:10;;;;;;;13.85;6.00;;;;;;;2.00;100.00;98230.06;5106810;29;20028;-74
2023/03/10 00:45:40;;;;;;;17.55;7.32;;;;;;;1.87;100.00;98234.03;5099733;29;20123;-73
2023/03/10 00:48:10;;;;;;;16.50;6.93;;;;;;;1.80;100.00;98230.03;5103260;29;20500;-73
2023/03/10 00:50:41;;;;;;;17.80;6.68;;;;;;;1.91;100.00;98227.84;5107147;29;20039;-75
2023/03/10 00:53:11;;;;;;;18.77;7.30;;;;;;;1.86;100.00;98222.03;5096025;29;20027;-74
2023/03/10 00:55:41;;;;;;;18.65;7.03;;;;;;;1.66;100.00;98214.25;5087802;29;20035;-73
2023/03/10 00:58:11;;;;;;;15.30;6.85;;;;;;;1.64;100.00;98210.91;5096521;29;20500;-74
2023/03/10 01:00:42;;;;;;;17.20;7.18;;;;;;;1.65;100.00;98212.59;5098168;29;20079;-73
2023/03/10 01:03:13;;;;;;;19.05;7.25;;;;;;;1.66;100.00;98198.81;5100006;29;20339;-72
2023/03/10 01:05:44;;;;;;;15.30;6.95;;;;;;;1.67;100.00;98194.50;5109435;29;20397;-73
2023/03/10 01:08:14;;;;;;;18.48;6.97;;;;;;;1.66;100.00;98203.97;5110736;29;20548;-73
2023/03/10 01:10:45;;;;;;;16.73;7.28;;;;;;;1.71;100.00;98176.31;5117991;28;20146;-73
2023/03/10 01:13:17;;;;;;;18.38;7.85;;;;;;;1.58;100.00;98167.38;5108746;29;20351;-74
2023/03/10 01:15:49;;;;;;;20.98;7.55;;;;;;;1.67;100.00;98185.03;5111800;29;20103;-74
2023/03/10 01:18:20;;;;;;;19.95;7.55;;;;;;;1.67;100.00;98169.59;5064814;29;1111078;-71
2023/03/10 01:20:51;;;;;;;18.40;6.97;;;;;;;1.57;100.00;98150.25;5108020;29;20566;-73
2023/03/10 01:23:23;;;;;;;22.48;7.78;;;;;;;1.57;100.00;98146.88;5107110;29;20103;-73
2023/03/10 01:25:54;;;;;;;20.38;7.38;;;;;;;1.57;100.00;98157.97;5107643;29;20020;-73
2023/03/10 01:28:24;;;;;;;16.83;6.72;;;;;;;1.64;100.00;98144.00;5119210;28;20039;-73
2023/03/10 01:30:55;;;;;;;18.35;6.85;;;;;;;1.65;100.00;98142.25;5107565;29;20077;-72
2023/03/10 01:33:25;;;;;;;18.00;7.20;;;;;;;1.62;100.00;98132.06;5106890;29;20374;-72
2023/03/10 01:35:56;;;;;;;18.20;6.63;;;;;;;1.62;100.00;98116.63;5108041;29;20055;-73
2023/03/10 01:38:26;;;;;;;16.75;7.15;;;;;;;1.66;100.00;98126.75;5106447;29;20110;-72
2023/03/10 01:40:56;;;;;;;19.38;7.10;;;;;;;1.70;100.00;98118.00;5124361;29;20115;-73
2023/03/10 01:43:40;;;;;;;20.23;7.72;;;;;;;1.67;100.00;98112.13;5140657;28;20031;-73
2023/03/10 01:46:26;;;;;;;17.33;6.50;;;;;;;1.70;100.00;98094.84;5125715;29;20042;-73
2023/03/10 01:49:01;;;;;;;16.88;6.95;;;;;;;1.82;100.00;98089.22;5110298;29;20035;-73
2023/03/10 01:51:33;;;;;;;16.88;6.80;;;;;;;1.79;100.00;98087.59;5105415;29;20028;-72
2023/03/10 01:54:08;;;;;;;18.15;7.35;;;;;;;1.82;100.00;98071.19;5114761;29;20057;-72
2023/03/10 01:56:39;;;;;;;19.73;6.65;;;;;;;1.75;100.00;98066.34;5113717;29;20038;-72
2023/03/10 01:59:10;;;;;;;19.38;6.57;;;;;;;1.69;100.00;98059.72;5111067;28;20180;-72
2023/03/10 02:01:41;;;;;;;14.05;6.65;;;;;;;1.66;100.00;98053.84;5101542;29;20046;-72
2023/03/10 02:04:28;;;;;;;14.63;6.07;;;;;;;1.72;100.00;98056.19;5106889;29;20035;-73
2023/03/10 02:07:01;;;;;;;15.38;6.55;;;;;;;1.68;100.00;98042.59;5105087;29;20493;-73
2023/03/10 02:09:34;;;;;;;15.40;6.60;;;;;;;1.73;100.00;98040.66;5105036;29;20138;-74
2023/03/10 02:12:06;;;;;;;15.25;6.28;;;;;;;1.71;100.00;98031.34;5123155;29;20020;-72
2023/03/10 02:14:37;;;;;;;16.20;6.82;;;;;;;1.85;100.00;98045.31;5107735;28;20388;-71
2023/03/10 02:17:12;;;;;;;17.05;6.32;;;;;;;1.86;100.00;98036.69;5112290;29;20038;-70
2023/03/10 02:19:57;;;;;;;12.93;5.63;;;;;;;1.78;100.00;98010.41;5113511;29;20494;-72
2023/03/10 02:22:27;;;;;;;13.70;5.78;;;;;;;1.89;100.00;98018.53;5108972;28;20629;-72
2023/03/10 02:25:00;;;;;;;14.85;6.15;;;;;;;1.82;100.00;98001.69;5119674;29;20035;-73
2023/03/10 02:27:35;;;;;;;14.40;6.05;;;;;;;1.78;100.00;97992.41;5116185;29;20046;-73
2023/03/10 02:30:10;;;;;;;15.88;5.50;;;;;;;1.87;100.00;97990.31;5122302;29;20193;-71
2023/03/10 02:32:48;;;;;;;14.68;6.35;;;;;;;1.85;100.00;97986.94;5106745;29;20032;-73
2023/03/10 02:35:18;;;;;;;16.13;6.30;;;;;;;1.94;100.00;97977.97;5108936;29;20541;-72
2023/03/10 02:37:51;;;;;;;14.50;5.90;;;;;;;1.90;100.00;97971.31;5107923;29;20106;-72
2023/03/10 02:40:36;;;;;;;14.90;5.90;;;;;;;1.97;100.00;97962.44;5125347;29;20118;-73
2023/03/10 02:43:15;;;;;;;16.63;5.90;;;;;;;2.06;100.00;97964.59;5098448;29;20083;-73
2023/03/10 02:45:47;;;;;;;13.30;5.15;;;;;;;2.04;100.00;97953.53;5115640;29;20034;-73
2023/03/10 02:48:28;;;;;;;11.77;5.53;;;;;;;2.26;100.00;97944.78;5116583;29;20131;-73
2023/03/10 02:51:00;;;;;;;12.90;5.60;;;;;;;2.08;100.00;97939.59;5100463;29;20035;-73
2023/03/10 02:53:31;;;;;;;14.90;5.55;;;;;;;2.06;100.00;97937.13;5101538;29;20042;-74
2023/03/10 02:56:01;;;;;;;18.52;5.55;;;;;;;2.11;100.00;97936.88;5105066;29;20039;-73
2023/03/10 02:58:32;;;;;;;13.05;5.30;;;;;;;2.00;100.00;97927.06;5123783;29;20062;-72
2023/03/10 03:01:03;;;;;;;15.85;5.82;;;;;;;1.99;100.00;97925.38;5107101;29;20027;-73
2023/03/10 03:03:34;;;;;;;14.13;5.75;;;;;;;2.11;100.00;97924.84;5122513;29;20063;-73
2023/03/10 03:06:04;;;;;;;13.15;5.55;;;;;;;2.07;100.00;97931.06;5103740;29;20522;-73
2023/03/10 03:08:35;;;;;;;12.43;5.00;;;;;;;2.19;100.00;97911.66;5090595;29;20038;-73
2023/03/10 03:11:05;;;;;;;12.13;5.40;;;;;;;2.19;100.00;97914.22;5112816;28;20030;-73
2023/03/10 03:13:36;;;;;;;14.32;5.47;;;;;;;2.09;100.00;97900.91;5120446;29;20041;-72
2023/03/10 03:16:07;;;;;;;12.68;5.45;;;;;;;2.21;100.00;97899.53;5115858;29;20038;-71
2023/03/10 03:18:38;;;;;;;13.05;5.45;;;;;;;2.19;100.00;97894.44;5102775;29;20031;-72
2023/03/10 03:21:11;;;;;;;13.73;5.47;;;;;;;2.24;100.00;97899.38;5104099;29;20099;-72
2023/03/10 03:23:44;;;;;;;12.18;5.13;;;;;;;2.29;100.00;97889.69;5102976;29;20030;-73
2023/03/10 03:26:23;;;;;;;12.05;4.93;;;;;;;2.23;100.00;97884.84;5105622;29;20038;-72
2023/03/10 03:28:53;;;;;;;11.48;4.40;;;;;;;2.11;100.00;97875.06;5102549;29;20110;-73
2023/03/10 03:31:24;;;;;;;10.95;5.05;;;;;;;2.06;100.00;97875.31;5102914;29;20031;-72
2023/03/10 03:33:54;;;;;;;11.07;4.72;;;;;;;2.17;100.00;97861.94;5116566;28;20027;-73
2023/03/10 03:36:25;;;;;;;9.85;4.55;;;;;;;2.15;100.00;97864.56;5104046;29;20562;-72
2023/03/10 03:38:55;;;;;;;11.10;4.80;;;;;;;2.14;100.00;97850.03;5104217;29;20062;-74
2023/03/10 03:41:25;;;;;;;10.13;4.60;;;;;;;2.09;100.00;97856.28;5102863;29;20039;-72
2023/03/10 03:43:56;;;;;;;11.45;4.97;;;;;;;2.04;100.00;97843.66;5102718;29;20043;-73
2023/03/10 03:46:26;;;;;;;11.30;4.28;;;;;;;2.03;100.00;97836.81;5103266;29;20061;-73
2023/03/10 03:48:56;;;;;;;9.73;4.28;;;;;;;2.03;100.00;97838.56;5112061;29;20087;-71
2023/03/10 03:51:27;;;;;;;12.85;5.10;;;;;;;2.06;100.00;97822.97;5102241;29;20327;-72
2023/03/10 03:53:57;;;;;;;12.23;4.70;;;;;;;2.06;100.00;97817.81;5102138;29;20122;-73
2023/03/10 03:56:27;;;;;;;9.75;4.88;;;;;;;2.17;100.00;97818.16;5103697;29;20047;-73
2023/03/10 03:58:57;;;;;;;10.35;4.28;;;;;;;2.15;100.00;97805.34;5109485;29;20035;-73
2023/03/10 04:01:28;;;;;;;10.55;4.38;;;;;;;2.25;100.00;97808.31;5102224;29;20024;-72
2023/03/10 04:03:58;;;;;;;10.75;4.25;;;;;;;2.29;100.00;97799.53;5102287;29;20477;-73
2023/03/10 04:06:29;;;;;;;13.75;4.55;;;;;;;2.37;100.00;97805.19;5102594;29;20086;-73
2023/03/10 04:08:59;;;;;;;10.05;4.63;;;;;;;2.41;100.00;97804.13;5108643;29;20036;-72
2023/03/10 04:11:29;;;;;;;11.02;4.32;;;;;;;2.54;100.00;97800.06;5120847;29;20031;-73
2023/03/10 04:13:59;;;;;;;8.65;3.95;;;;;;;2.51;100.00;97800.22;5104469;29;20551;-73
2023/03/10 04:16:30;;;;;;;8.93;4.15;;;;;;;2.58;100.00;97792.13;5102384;29;20031;-73
2023/03/10 04:19:01;;;;;;;9.32;4.03;;;;;;;2.57;100.00;97797.34;5101507;29;20114;-73
2023/03/10 04:21:33;;;;;;;10.15;4.30;;;;;;;2.68;100.00;97784.78;5102147;29;20051;-73
2023/03/10 04:24:04;;;;;;;10.13;3.80;;;;;;;2.58;100.00;97788.69;5100828;29;20027;-73
2023/03/10 04:26:34;;;;;;;9.85;3.92;;;;;;;2.64;100.00;97785.81;5105586;29;20023;-73
2023/03/10 04:29:04;;;;;;;10.40;4.18;;;;;;;2.61;100.00;97785.97;5115522;29;20037;-73
2023/03/10 04:31:35;;;;;;;9.38;4.10;;;;;;;2.67;100.00;97767.63;5102013;29;20036;-74
2023/03/10 04:34:05;;;;;;;7.15;3.65;;;;;;;2.74;100.00;97781.88;5102197;29;20024;-73
2023/03/10 04:36:35;;;;;;;9.90;4.03;;;;;;;2.82;100.00;97795.25;5102989;29;20030;-73
2023/03/10 04:39:06;;;;;;;7.68;3.63;;;;;;;2.70;100.00;97782.94;5113026;29;20041;-72
2023/03/10 04:41:36;;;;;;;8.15;3.50;;;;;;;2.63;100.00;97777.25;5122824;29;20029;-73
2023/03/10 04:44:07;;;;;;;8.02;3.33;;;;;;;2.47;100.00;97788.41;5120599;29;20042;-73
2023/03/10 04:46:37;;;;;;;8.60;3.83;;;;;;;2.63;100.00;97807.34;5108242;29;20475;-72
2023/03/10 04:49:07;;;;;;;6.72;3.20;;;;;;;2.65;100.00;97800.38;5102919;29;20493;-72
2023/03/10 04:51:37;;;;;;;7.13;2.92;;;;;;;2.55;100.00;97799.16;5092176;29;20035;-71
2023/03/10 04:54:08;;;;;;;7.93;3.40;;;;;;;2.47;100.00;97794.38;5091299;29;20027;-72
2023/03/10 04:56:38;;;;;;;6.78;3.40;;;;;;;2.61;100.00;97811.72;5102350;29;20074;-72
2023/03/10 04:59:08;;;;;;;7.03;3.08;;;;;;;2.60;100.00;97810.06;5104739;29;20035;-73
2023/03/10 05:01:39;;;;;;;7.57;3.47;;;;;;;2.47;100.00;97799.50;5102374;29;20051;-74
2023/03/10 05:04:09;;;;;;;6.13;3.20;;;;;;;2.53;100.00;97799.22;5102171;29;20054;-73
2023/03/10 05:06:39;;;;;;;6.45;2.78;;;;;;;2.64;100.00;97809.84;5102828;29;20035;-73
2023/03/10 05:09:09;;;;;;;8.07;3.33;;;;;;;2.59;100.00;97798.09;5109379;29;20027;-72
2023/03/10 05:11:40;;;;;;;7.88;3.10;;;;;;;2.42;100.00;97796.34;5103764;29;20036;-73
2023/03/10 05:14:12;;;;;;;6.63;3.33;;;;;;;2.67;100.00;97796.00;5106202;29;20032;-73
2023/03/10 05:16:42;;;;;;;7.75;3.78;;;;;;;2.48;100.00;97790.88;5102459;29;20036;-73
2023/03/10 05:19:12;;;;;;;6.18;2.80;;;;;;;2.50;100.00;97793.38;5102601;29;20067;-72
2023/03/10 05:21:43;;;;;;;7.32;3.08;;;;;;;2.44;100.00;97789.34;5102508;29;20442;-72
2023/03/10 05:24:13;;;;;;;7.78;2.97;;;;;;;2.36;100.00;97785.47;5102644;29;20116;-72
2023/03/10 05:26:43;;;;;;;7.32;3.00;;;;;;;2.34;100.00;97785.53;5102791;29;20508;-73
2023/03/10 05:29:14;;;;;;;5.75;2.97;;;;;;;2.47;100.00;97790.97;5102387;29;20394;-73
2023/03/10 05:31:44;;;;;;;8.35;2.95;;;;;;;2.38;100.00;97784.50;5090503;29;20043;-72
2023/03/10 05:34:15;;;;;;;6.72;2.88;;;;;;;2.52;100.00;97791.56;5102693;29;20042;-73
2023/03/10 05:36:45;;;;;;;8.15;3.17;;;;;;;2.40;100.00;97784.41;5102698;29;20095;-73
2023/03/10 05:39:15;;;;;;;11.35;3.00;;;;;;;2.61;100.00;97775.66;5117080;29;20553;-73
2023/03/10 05:41:46;;;;;;;10.13;3.22;;;;;;;2.64;100.00;97778.91;5101638;29;20107;-73
2023/03/10 05:44:16;;;;;;;5.50;2.67;;;;;;;2.68;100.00;97782.19;5101636;29;20483;-73
2023/03/10 05:46:46;;;;;;;4.68;2.50;;;;;;;2.74;100.00;97781.88;5102624;29;20315;-73
2023/03/10 05:49:16;;;;;;;5.18;2.70;;;;;;;2.69;100.00;97774.38;5102214;29;20034;-73
2023/03/10 05:51:47;;;;;;;12.73;3.13;;;;;;;2.80;100.00;97781.56;5101180;29;20034;-73
2023/03/10 05:54:17;;;;;;;6.55;2.92;;;;;;;2.81;100.00;97788.38;5102429;29;20032;-72
2023/03/10 05:56:48;;;;;;;5.75;2.78;;;;;;;2.76;100.00;97791.22;5103183;29;20040;-73
2023/03/10 05:59:18;;;;;;;6.05;2.92;;;;;;;2.72;100.00;97792.25;5106215;29;20051;-73
2023/03/10 06:01:48;;;;;;;9.60;2.78;;;;;;;2.84;100.00;97783.09;5105660;29;20024;-72
2023/03/10 06:04:19;;;;;;;7.72;2.72;;;;;;;2.76;100.00;97791.22;5106062;29;20035;-74
2023/03/10 06:06:49;;;;;;;5.70;2.70;;;;;;;2.65;100.00;97793.47;5105763;29;20031;-73
2023/03/10 06:09:19;;;;;;;8.07;3.85;;;;;;;2.87;100.00;97796.66;5108758;29;20023;-72
2023/03/10 06:11:50;;;;;;;8.45;3.10;;;;;;;2.78;100.00;97794.56;5108098;29;20036;-74
2023/03/10 06:14:20;;;;;;;6.82;2.90;;;;;;;2.92;100.00;97804.19;5104655;29;20489;-73
2023/03/10 06:16:53;;;;;;;5.82;2.90;;;;;;;2.85;100.00;97800.25;5105574;29;20039;-73
2023/03/10 06:19:24;;;;;;;7.10;3.00;;;;;;;2.98;100.00;97803.84;5105242;29;20082;-72
2023/03/10 06:21:55;;;;;;;8.70;3.30;;;;;;;2.91;100.00;97808.50;5105152;29;20026;-73
2023/03/10 06:24:28;;;;;;;6.93;3.00;;;;;;;3.08;100.00;97802.50;5098656;29;20028;-73
2023/03/10 06:26:58;;;;;;;6.68;3.05;;;;;;;2.96;100.00;97816.00;5104846;29;20343;-73
2023/03/10 06:29:28;;;;;;;7.38;3.40;;;;;;;2.91;100.00;97820.56;5105627;29;20058;-73
2023/03/10 06:31:58;;;;;;;7.15;3.58;;;;;;;2.95;100.00;97811.75;5105088;29;20043;-72
2023/03/10 06:34:29;;;;;;;6.95;3.38;;;;;;;3.04;100.00;97816.47;5104100;29;20114;-72
2023/03/10 06:36:59;;;;;;;7.22;2.75;;;;;;;2.89;100.00;97832.69;5105756;29;20030;-73
2023/03/10 06:39:30;;;;;;;6.25;2.83;;;;;;;2.89;100.00;97838.66;5104128;29;20020;-73
2023/03/10 06:42:00;;;;;;;10.05;3.60;;;;;;;2.89;100.00;97845.59;5105349;29;20032;-73
2023/03/10 06:44:31;;;;;;;7.65;3.72;;;;;;;2.96;100.00;97839.22;5111778;29;20023;-73
2023/03/10 06:47:03;;;;;;;9.10;3.90;;;;;;;3.09;100.00;97845.44;5092855;29;20050;-73
2023/03/10 06:49:34;;;;;;;6.78;3.55;;;;;;;3.10;100.00;97841.94;5105325;29;20040;-72
2023/03/10 06:52:04;;;;;;;7.22;3.70;;;;;;;3.04;100.00;97844.84;5105242;29;20028;-72
2023/03/10 06:54:35;;;;;;;7.45;3.67;;;;;;;3.05;100.00;97849.09;5111451;29;20038;-73
2023/03/10 06:57:05;;;;;;;9.65;4.90;;;;;;;3.21;100.00;97850.00;5106961;29;20118;-73
2023/03/10 06:59:36;;;;;;;15.52;5.85;;;;;;;3.07;100.00;97861.00;5105170;29;20059;-73
2023/03/10 07:02:09;;;;;;;12.68;5.03;;;;;;;3.03;100.00;97864.63;5104613;29;20114;-73
2023/03/10 07:04:40;;;;;;;10.82;4.80;;;;;;;3.07;100.00;97868.75;5103423;29;20087;-73
2023/03/10 07:07:12;;;;;;;15.43;6.22;;;;;;;3.05;100.00;97874.88;5104971;29;20031;-72
2023/03/10 07:09:42;;;;;;;11.40;4.65;;;;;;;3.09;100.00;97889.28;5110618;29;20039;-73
2023/03/10 07:12:12;;;;;;;13.00;5.10;;;;;;;3.13;100.00;97889.06;5104095;29;20032;-73
2023/03/10 07:14:43;;;;;;;9.00;3.92;;;;;;;3.37;100.00;97893.00;5104880;29;20028;-74
2023/03/10 07:17:13;;;;;;;8.05;3.58;;;;;;;3.43;100.00;97894.44;5118543;23;20174;-74
2023/03/10 07:19:44;;;;;;;6.35;3.30;;;;;;;3.39;100.00;97890.38;5103158;29;20397;-75
2023/03/10 07:22:14;;;;;;;8.52;3.50;;;;;;;3.43;100.00;97894.44;5074759;29;20024;-74
2023/03/10 07:24:44;;;;;;;8.63;4.80;;;;;;;3.48;100.00;97902.78;5101328;29;20337;-75
2023/03/10 07:27:14;;;;;;;11.48;6.40;;;;;;;3.60;100.00;97911.59;5090228;29;20027;-72
2023/03/10 07:29:45;;;;;;;10.73;5.95;;;;;;;3.43;100.00;97895.31;5091341;29;20722;-74
2023/03/10 07:32:16;;;;;;;10.50;4.43;;;;;;;3.54;100.00;97902.50;5088485;29;20067;-75
2023/03/10 07:34:46;;;;;;;8.38;4.47;;;;;;;3.57;100.00;97910.91;5082726;29;20453;-76
2023/03/10 07:37:16;;;;;;;8.65;4.70;;;;;;;3.66;100.00;97905.28;5090410;29;20031;-76
2023/03/10 07:39:47;;;;;;;9.18;4.88;;;;;;;3.87;100.00;97915.38;5101289;29;20351;-74
2023/03/10 07:42:17;;;;;;;11.05;5.22;;;;;;;3.97;100.00;97911.38;5096557;29;20029;-76
2023/03/10 07:44:47;;;;;;;11.85;6.18;;;;;;;4.19;100.00;97911.09;5092454;29;20075;-76
2023/03/10 07:47:18;;;;;;;9.93;5.38;;;;;;;4.12;100.00;97920.91;5091994;29;20035;-74
2023/03/10 07:49:48;;;;;;;12.13;6.30;;;;;;;4.20;100.00;97928.28;5086212;29;20406;-74
2023/03/10 07:52:19;;;;;;;12.55;6.10;;;;;;;4.26;100.00;97933.13;5114621;29;20122;-75
2023/03/10 07:54:49;;;;;;;19.00;9.73;;;;;;;4.35;100.00;97933.50;5091921;29;20100;-75
2023/03/10 07:57:20;;;;;;;18.67;9.20;;;;;;;4.29;100.00;97927.81;5100097;29;20024;-76
2023/03/10 07:59:50;;;;;;;12.43;6.70;;;;;;;4.28;100.00;97929.53;5089387;29;20032;-74
2023/03/10 08:02:20;;;;;;;12.10;6.22;;;;;;;4.35;100.00;97937.81;5111148;29;20561;-75
2023/03/10 08:04:51;;;;;;;11.07;5.35;;;;;;;4.39;100.00;97939.31;5090971;29;20063;-74
2023/03/10 08:07:21;;;;;;;11.52;5.20;;;;;;;4.34;100.00;97929.22;5110051;29;20090;-76
2023/03/10 08:09:53;;;;;;;10.95;6.75;;;;;;;4.29;100.00;97926.03;5094533;29;20453;-74
2023/03/10 08:12:23;;;;;;;10.50;5.93;;;;;;;4.47;100.00;97937.97;5087587;29;20213;-75
2023/03/10 08:14:53;;;;;;;9.93;4.97;;;;;;;4.45;100.00;97942.41;5091571;29;20027;-75
2023/03/10 08:17:29;;;;;;;12.18;6.32;;;;;;;4.42;100.00;97947.75;5087133;29;20858;-74
2023/03/10 08:20:00;;;;;;;9.15;4.85;;;;;;;4.50;100.00;97950.75;5085729;29;20466;-75
2023/03/10 08:22:30;;;;;;;10.32;5.50;;;;;;;4.39;100.00;97953.09;5084936;29;20038;-75
2023/03/10 08:25:00;;;;;;;18.08;8.65;;;;;;;4.31;100.00;97957.81;5096609;29;20039;-74
2023/03/10 08:27:31;;;;;;;12.85;6.50;;;;;;;4.47;100.00;97971.59;5090759;29;20554;-74
2023/03/10 08:30:01;;;;;;;12.27;6.65;;;;;;;4.49;100.00;97968.94;5083926;29;20083;-74
2023/03/10 08:32:32;;;;;;;11.32;6.57;;;;;;;4.38;100.00;97969.50;5082869;29;20032;-75
2023/03/10 08:35:04;;;;;;;13.18;6.38;;;;;;;4.48;100.00;97968.09;5092124;29;20079;-75
2023/03/10 08:37:34;;;;;;;12.68;5.50;;;;;;;4.43;100.00;97972.69;5087251;29;20038;-75
2023/03/10 08:40:06;;;;;;;15.20;7.53;;;;;;;4.34;100.00;97968.00;5092780;29;20482;-76
2023/03/10 08:42:37;;;;;;;8.98;4.60;;;;;;;4.51;100.00;97960.19;5089835;29;20034;-74
2023/03/10 08:45:08;;;;;;;9.88;4.05;;;;;;;4.53;100.00;97962.69;5089661;29;20024;-75
2023/03/10 08:47:38;;;;;;;8.32;3.67;;;;;;;4.58;100.00;97971.00;5087542;29;20314;-74
2023/03/10 08:50:10;;;;;;;7.53;3.53;;;;;;;4.57;100.00;97965.03;5083880;29;20108;-75
2023/03/10 08:52:40;;;;;;;5.90;3.30;;;;;;;4.65;100.00;97969.78;5091163;29;20417;-74
2023/03/10 08:55:11;;;;;;;24.83;7.28;;;;;;;4.66;100.00;97977.44;5094931;29;20023;-72
2023/03/10 08:57:41;;;;;;;8.35;3.72;;;;;;;4.58;100.00;97977.03;5086879;29;20039;-73
2023/03/10 09:00:12;;;;;;;8.35;3.50;;;;;;;4.56;100.00;97978.03;5091145;29;20410;-74
2023/03/10 09:02:43;;;;;;;7.65;4.03;;;;;;;4.63;100.00;97980.22;5092130;29;20034;-75
2023/03/10 09:05:13;;;;;;;15.57;7.68;;;;;;;4.60;100.00;97977.78;5089980;29;20550;-75
2023/03/10 09:07:43;;;;;;;9.93;5.30;;;;;;;4.76;100.00;97986.41;5090615;29;20102;-75
2023/03/10 09:10:14;;;;;;;7.25;3.88;;;;;;;4.71;100.00;97984.97;5096530;29;20066;-76
2023/03/10 09:12:44;;;;;;;7.63;3.95;;;;;;;4.68;100.00;97983.41;5089278;29;20036;-75
2023/03/10 09:15:14;;;;;;;10.82;5.68;;;;;;;4.81;100.00;97988.75;5087512;29;20489;-73
2023/03/10 09:17:44;;;;;;;8.48;5.00;;;;;;;4.82;100.00;97986.06;5088180;29;20039;-75
2023/03/10 09:20:15;;;;;;;7.57;4.05;;;;;;;4.94;100.00;97990.56;5088299;29;20036;-76
2023/03/10 09:22:45;;;;;;;6.95;3.40;;;;;;;4.76;100.00;97996.75;5089761;29;20095;-74
2023/03/10 09:25:15;;;;;;;4.82;2.70;;;;;;;4.82;100.00;97991.22;5097364;29;20122;-75
2023/03/10 09:27:46;;;;;;;7.18;2.90;;;;;;;4.85;100.00;97991.09;5084776;29;20068;-76
2023/03/10 09:30:16;;;;;;;7.15;2.80;;;;;;;4.98;100.00;98002.41;5085799;29;20421;-74
2023/03/10 09:32:46;;;;;;;11.27;4.70;;;;;;;4.78;100.00;97992.31;5103131;29;20466;-74
2023/03/10 09:35:17;;;;;;;7.00;2.67;;;;;;;4.66;100.00;97990.38;5094941;29;20313;-75
2023/03/10 09:37:48;;;;;;;5.35;2.20;;;;;;;4.70;100.00;97991.91;5091178;29;20039;-76
2023/03/10 09:40:19;;;;;;;4.35;2.40;;;;;;;4.83;100.00;98000.66;5099809;29;20042;-75
2023/03/10 09:42:58;;;;;;;5.13;2.30;;;;;;;4.92;100.00;98009.69;5094610;29;20099;-73
2023/03/10 09:45:59;;;;;;;4.53;2.33;;;;;;;4.91;100.00;98006.28;5078104;29;20513;-74
2023/03/10 09:48:42;;;;;;;4.15;1.95;;;;;;;4.81;100.00;97994.72;5090451;29;20027;-75
2023/03/10 09:51:21;;;;;;;4.78;2.60;;;;;;;4.95;100.00;97994.00;5089557;29;20138;-74
2023/03/10 09:54:21;;;;;;;5.22;2.00;;;;;;;5.10;100.00;97995.72;5087266;29;20063;-75
2023/03/10 09:56:55;;;;;;;3.33;1.70;;;;;;;5.07;100.00;97999.34;5093933;29;20028;-74
2023/03/10 09:59:36;;;;;;;3.13;1.77;;;;;;;5.06;100.00;98002.00;5090302;29;20036;-75
2023/03/10 10:02:33;;;;;;;5.43;2.33;;;;;;;4.84;100.00;98004.91;5088858;29;20028;-75
2023/03/10 10:05:13;;;;;;;3.45;1.90;;;;;;;4.75;100.00;98005.41;5088582;29;20537;-75
2023/03/10 10:07:51;;;;;;;3.67;1.90;;;;;;;4.81;100.00;97999.91;5094438;29;20102;-74
2023/03/10 10:10:28;;;;;;;2.97;1.73;;;;;;;4.77;100.00;98005.34;5102395;29;20087;-74
2023/03/10 10:13:06;;;;;;;3.92;2.10;;;;;;;4.86;100.00;98017.78;5094280;29;20059;-77
2023/03/10 10:15:40;;;;;;;4.75;2.08;;;;;;;4.96;100.00;98019.78;5090889;29;20028;-74
2023/03/10 10:18:38;;;;;;;3.15;2.00;;;;;;;4.75;100.00;98008.00;5091936;29;20032;-75
2023/03/10 10:21:24;;;;;;;3.03;1.75;;;;;;;5.02;100.00;98026.38;5081374;29;20413;-74
2023/03/10 10:23:55;;;;;;;3.10;1.83;;;;;;;5.08;100.00;98021.72;5085663;29;20082;-74
2023/03/10 10:26:27;;;;;;;5.40;2.25;;;;;;;5.18;100.00;98019.47;5086366;29;20020;-75
2023/03/10 10:29:10;;;;;;;3.97;2.05;;;;;;;5.06;100.00;98031.31;5090259;29;20032;-74
2023/03/10 10:31:40;;;;;;;5.38;2.47;;;;;;;5.23;100.00;98030.38;5106308;29;20648;-75
2023/03/10 10:34:20;;;;;;;3.55;1.90;;;;;;;5.25;100.00;98034.56;5091449;29;20119;-74
2023/03/10 10:36:53;;;;;;;3.65;2.00;;;;;;;5.22;100.00;98031.31;5091234;29;20035;-75
2023/03/10 10:39:25;;;;;;;3.30;1.80;;;;;;;5.41;100.00;98025.03;5116136;29;20086;-75
2023/03/10 10:42:26;;;;;;;4.45;1.80;;;;;;;5.45;100.00;98026.53;5097586;29;20501;-74
2023/03/10 10:45:05;;;;;;;4.63;2.13;;;;;;;5.36;100.00;98024.44;5090744;29;20036;-74
2023/03/10 10:47:48;;;;;;;4.22;2.00;;;;;;;5.15;100.00;98030.81;5106062;29;20151;-77
2023/03/10 10:50:22;;;;;;;2.65;1.63;;;;;;;5.00;100.00;98030.81;5094794;29;20474;-75
2023/03/10 10:53:12;;;;;;;3.97;1.88;;;;;;;4.99;100.00;98027.38;5093252;29;20034;-75
2023/03/10 10:55:45;;;;;;;4.28;2.15;;;;;;;5.05;100.00;98027.06;5084620;29;20063;-73
2023/03/10 10:58:37;;;;;;;4.10;2.20;;;;;;;4.98;100.00;98028.28;5090150;29;20087;-74
2023/03/10 11:01:14;;;;;;;4.13;2.10;;;;;;;4.83;100.00;98026.53;5076903;29;20032;-75
2023/03/10 11:03:47;;;;;;;4.43;2.38;;;;;;;5.05;100.00;98032.25;5092281;29;20495;-75
2023/03/10 11:06:26;;;;;;;3.97;1.85;;;;;;;5.14;100.00;98029.13;5098452;29;20039;-74
2023/03/10 11:09:19;;;;;;;4.43;2.05;;;;;;;5.01;100.00;98024.72;5111617;29;20586;-74
2023/03/10 11:12:28;;;;;;;4.53;2.28;;;;;;;5.06;100.00;98033.91;5084753;29;20035;-75
2023/03/10 11:15:18;;;;;;;3.08;1.65;;;;;;;5.38;100.00;98023.44;5094407;29;20038;-75
2023/03/10 11:17:53;;;;;;;2.80;1.55;;;;;;;5.38;100.00;98022.63;5085810;29;20434;-75
2023/03/10 11:20:31;;;;;;;2.72;1.58;;;;;;;5.46;100.00;98030.78;5077921;29;20048;-73
2023/03/10 11:23:10;;;;;;;5.57;1.73;;;;;;;5.53;100.00;98029.50;5078058;29;20036;-75
2023/03/10 11:26:05;;;;;;;3.35;1.80;;;;;;;5.40;100.00;98026.78;5084228;29;20076;-75
2023/03/10 11:28:57;;;;;;;3.08;1.70;;;;;;;5.28;100.00;98025.78;5091039;29;20066;-75
2023/03/10 11:31:54;;;;;;;4.63;2.05;;;;;;;5.40;100.00;98015.59;5085118;29;20032;-74
2023/03/10 11:34:30;;;;;;;3.63;2.10;;;;;;;5.40;100.00;98013.03;5080470;29;20426;-75
2023/03/10 11:37:10;;;;;;;4.90;1.92;;;;;;;5.13;100.00;98017.13;5090808;29;20031;-75
2023/03/10 11:39:53;;;;;;;5.18;2.28;;;;;;;5.11;100.00;98015.56;5111782;29;20034;-74
2023/03/10 11:42:37;;;;;;;4.38;2.10;;;;;;;4.92;100.00;98023.47;5088636;29;20222;-75
2023/03/10 11:45:27;;;;;;;6.00;2.35;;;;;;;4.92;100.00;98018.28;5084652;29;20565;-75
2023/03/10 11:48:28;;;;;;;6.95;3.30;;;;;;;4.90;100.00;98020.13;5080892;29;20032;-76
2023/03/10 11:51:02;;;;;;;4.18;2.30;;;;;;;4.71;100.00;98014.28;5092977;29;20154;-74
2023/03/10 11:53:45;;;;;;;5.95;2.75;;;;;;;5.04;100.00;98011.59;5092353;29;20039;-74
2023/03/10 11:56:19;;;;;;;5.32;2.60;;;;;;;5.17;100.00;98010.03;5105870;29;20035;-73